Hicks Airfield Weather

No METAR data is available for Hicks Airfield, and nearby Alliance Airport's METAR data is commonly used by area pilots. Weather infomation is also available on 126.925 mhz.

  • Current KAFW METAR
    (5.8nm NE) VFR
    Raw Text: KAFW 181553Z 17013KT 10SM CLR 18/08 A2988 RMK AO2 SLP115 T01780083
    Wind: 170° @ 13kts
    Visibility: 10.0sm
    Clouds (AGL): CLR
    Temperature: 17.8°C
    Dew Point: 8.3°C
    Altimeter: 29.88 inHg
  • Current KAFW TAF
    (5.8nm NE)
    Raw Text: KAFW 181503Z 1815/1912 15010KT P6SM SKC FM190800 18009KT P6SM VCSH SCT070 BKN100